Time;durP1;ratioP1;P1;durP2;ratioP2;P2;SDS_P1;SDS_P2;PMS_P1;PMS_P2;Temp;Humidity;BMP_temperature;BMP_pressure;BME280_temperature;BME280_humidity;BME280_pressure;Samples;Min_cycle;Max_cycle;Signal;HPM_P1;HPM_P2
2023/10/17 00:01:21;;;;;;;7.90;4.60;;;3.60;99.90;2.70;100583;;;;575997;248;24126;-80
2023/10/17 00:03:48;;;;;;;7.73;4.40;;;3.60;99.90;2.70;100583;;;;575676;249;24078;-80
2023/10/17 00:06:22;;;;;;;10.07;4.37;;;3.60;99.90;2.70;100588;;;;576110;247;24205;-81
2023/10/17 00:08:44;;;;;;;7.47;3.80;;;3.60;99.90;2.70;100589;;;;565540;249;24101;-81
2023/10/17 00:11:29;;;;;;;7.57;4.63;;;3.60;99.90;2.70;100593;;;;575889;247;24119;-80
2023/10/17 00:14:07;;;;;;;7.80;4.70;;;3.60;99.90;2.70;100594;;;;565539;249;24090;-80
2023/10/17 00:16:31;;;;;;;8.13;4.40;;;3.60;99.90;2.70;100586;;;;566081;249;24102;-80
2023/10/17 00:19:04;;;;;;;6.80;4.03;;;3.60;99.90;2.70;100590;;;;570906;249;24105;-81
2023/10/17 00:21:27;;;;;;;5.70;3.83;;;3.60;99.90;2.80;100581;;;;565683;249;24156;-81
2023/10/17 00:23:54;;;;;;;8.43;4.17;;;3.70;99.90;2.90;100587;;;;566177;249;24082;-80
2023/10/17 00:26:22;;;;;;;7.20;4.40;;;3.70;99.90;2.90;100586;;;;566125;249;24082;-80
2023/10/17 00:28:52;;;;;;;12.20;4.57;;;3.80;99.90;2.90;100579;;;;566084;248;24099;-79
2023/10/17 00:31:21;;;;;;;10.07;4.60;;;3.80;99.90;2.90;100579;;;;565726;248;24097;-78
2023/10/17 00:33:48;;;;;;;5.90;4.60;;;3.80;99.90;2.90;100589;;;;565567;249;24144;-80
2023/10/17 00:36:16;;;;;;;8.30;4.70;;;3.80;99.90;2.80;100581;;;;565719;249;24089;-80
2023/10/17 00:38:43;;;;;;;6.83;4.40;;;3.80;99.90;2.80;100596;;;;565839;249;24100;-80
2023/10/17 00:41:09;;;;;;;5.83;4.53;;;3.70;99.90;2.80;100597;;;;567028;249;24099;-80
2023/10/17 00:43:38;;;;;;;9.60;4.57;;;3.70;99.90;2.80;100593;;;;565613;249;24081;-78
2023/10/17 00:46:07;;;;;;;5.80;4.47;;;3.70;99.90;2.80;100598;;;;565633;249;24135;-79
2023/10/17 00:48:34;;;;;;;7.53;4.77;;;3.70;99.90;2.80;100596;;;;566157;249;24110;-80
2023/10/17 00:51:11;;;;;;;7.93;5.07;;;3.70;99.90;2.70;100597;;;;567540;248;25124;-80
2023/10/17 00:53:30;;;;;;;5.43;3.93;;;3.70;99.90;2.70;100592;;;;571721;248;24081;-80
2023/10/17 00:55:57;;;;;;;5.03;4.50;;;3.60;99.90;2.70;100599;;;;567011;248;25173;-80
2023/10/17 00:58:25;;;;;;;5.40;4.27;;;3.60;99.90;2.70;100601;;;;566802;248;24080;-80
2023/10/17 01:01:00;;;;;;;7.47;4.13;;;3.60;99.90;2.70;100597;;;;566366;248;24117;-80
2023/10/17 01:03:29;;;;;;;8.37;4.57;;;3.60;99.90;2.60;100596;;;;566344;248;24172;-81
2023/10/17 01:06:13;;;;;;;9.60;4.90;;;3.50;99.90;2.60;100600;;;;563554;248;24112;-79
2023/10/17 01:08:38;;;;;;;8.30;4.87;;;3.50;99.90;2.60;100596;;;;568626;249;24125;-80
2023/10/17 01:10:57;;;;;;;4.27;3.57;;;3.50;99.90;2.60;100598;;;;585714;244;24073;-79
2023/10/17 01:13:27;;;;;;;11.90;4.53;;;3.50;99.90;2.60;100595;;;;562363;249;24098;-80
2023/10/17 01:15:53;;;;;;;5.27;4.07;;;3.50;99.90;2.50;100590;;;;566488;249;24143;-79
2023/10/17 01:18:21;;;;;;;4.03;3.30;;;3.40;99.90;2.50;100587;;;;566499;249;24116;-80
2023/10/17 01:20:49;;;;;;;5.07;3.87;;;3.40;99.90;2.50;100583;;;;566024;249;24097;-79
2023/10/17 01:23:17;;;;;;;5.37;3.77;;;3.40;99.90;2.50;100587;;;;565937;249;24128;-80
2023/10/17 01:25:46;;;;;;;5.63;3.33;;;3.40;99.90;2.40;100583;;;;566400;249;24084;-80
2023/10/17 01:28:13;;;;;;;4.00;3.03;;;3.40;99.90;2.40;100580;;;;565930;248;24097;-79
2023/10/17 01:30:41;;;;;;;3.80;2.83;;;3.40;99.90;2.40;100577;;;;566021;248;24171;-79
2023/10/17 01:33:08;;;;;;;5.07;3.50;;;3.40;99.90;2.40;100578;;;;566035;249;24074;-79
2023/10/17 01:35:36;;;;;;;7.97;3.10;;;3.30;99.90;2.40;100581;;;;566057;249;24136;-79
2023/10/17 01:38:05;;;;;;;3.40;2.83;;;3.30;99.90;2.40;100586;;;;566036;249;24091;-79
2023/10/17 01:40:32;;;;;;;5.30;2.53;;;3.30;99.90;2.40;100588;;;;566036;249;24076;-79
2023/10/17 01:43:00;;;;;;;6.90;3.70;;;3.30;99.90;2.30;100592;;;;566118;249;24090;-78
2023/10/17 01:45:30;;;;;;;6.60;3.07;;;3.30;99.90;2.40;100591;;;;566390;249;24081;-79
2023/10/17 01:47:56;;;;;;;4.17;2.60;;;3.30;99.90;2.40;100602;;;;565889;249;24108;-78
2023/10/17 01:50:25;;;;;;;6.00;3.07;;;3.30;99.90;2.30;100591;;;;565842;249;24097;-79
2023/10/17 01:52:59;;;;;;;3.13;2.60;;;3.20;99.90;2.30;100600;;;;565650;249;24121;-79
2023/10/17 01:55:27;;;;;;;5.07;3.07;;;3.20;99.90;2.30;100602;;;;567575;249;24137;-79
2023/10/17 01:58:01;;;;;;;3.77;3.00;;;3.30;99.90;2.30;100599;;;;567487;249;24101;-79
2023/10/17 02:03:06;;;;;;;9.23;3.33;;;3.30;99.90;2.30;100599;;;;566272;249;24104;-80
2023/10/17 02:05:30;;;;;;;7.43;3.20;;;3.20;99.90;2.30;100601;;;;566604;248;24088;-80
2023/10/17 02:07:59;;;;;;;5.87;2.70;;;3.20;99.90;2.30;100604;;;;577396;245;24150;-79
2023/10/17 02:10:29;;;;;;;6.80;3.78;;;3.20;99.90;2.20;100608;;;;561639;248;35272;-80
2023/10/17 02:12:55;;;;;;;5.07;3.23;;;3.20;99.90;2.10;100599;;;;566435;248;24190;-79
2023/10/17 02:15:26;;;;;;;3.37;3.07;;;3.10;99.90;2.10;100593;;;;567268;248;24089;-79
2023/10/17 02:17:56;;;;;;;5.10;3.20;;;3.00;99.90;2.00;100599;;;;566261;248;24123;-79
2023/10/17 02:20:34;;;;;;;6.77;3.10;;;3.00;99.90;2.00;100592;;;;566140;248;24107;-79
2023/10/17 02:22:52;;;;;;;3.23;2.70;;;2.90;99.90;1.90;100591;;;;565345;249;24122;-80
2023/10/17 02:25:37;;;;;;;5.30;2.47;;;2.90;99.90;1.90;100598;;;;566538;249;24142;-80
2023/10/17 02:28:03;;;;;;;3.97;2.70;;;2.90;99.90;2.00;100594;;;;566351;249;24122;-79
2023/10/17 02:30:31;;;;;;;4.97;2.77;;;2.90;99.90;1.90;100597;;;;566338;249;24094;-79
2023/10/17 02:33:01;;;;;;;4.77;3.27;;;2.90;99.90;1.90;100600;;;;565878;249;24121;-80
2023/10/17 02:35:40;;;;;;;6.13;2.87;;;2.90;99.90;1.90;100593;;;;565916;249;24092;-79
2023/10/17 02:38:05;;;;;;;7.10;3.27;;;2.90;99.90;1.90;100608;;;;565716;249;24101;-78
2023/10/17 02:40:40;;;;;;;5.87;2.80;;;2.90;99.90;1.90;100603;;;;565939;249;24126;-79
2023/10/17 02:43:07;;;;;;;3.00;2.70;;;2.80;99.90;1.80;100603;;;;575537;247;24093;-78
2023/10/17 02:45:31;;;;;;;3.10;2.70;;;2.80;99.90;1.90;100611;;;;566504;249;24101;-80
2023/10/17 02:48:45;;;;;;;5.73;3.10;;;2.80;99.90;1.90;100619;;;;566027;249;24151;-78
2023/10/17 02:50:42;;;;;;;6.03;3.03;;;2.80;99.90;1.90;100612;;;;564450;249;24111;-79
2023/10/17 02:52:55;;;;;;;5.77;3.03;;;2.80;99.90;1.90;100613;;;;575979;249;24148;-79
2023/10/17 02:55:28;;;;;;;3.60;3.27;;;2.80;99.90;1.90;100609;;;;566269;249;24084;-79
2023/10/17 02:57:57;;;;;;;4.83;3.13;;;2.80;99.90;1.80;100615;;;;566195;249;24095;-80
2023/10/17 03:00:23;;;;;;;6.27;3.47;;;2.80;99.90;1.80;100613;;;;567668;249;24219;-79
2023/10/17 03:02:57;;;;;;;6.23;3.33;;;2.80;99.90;1.80;100613;;;;570613;249;24128;-79
2023/10/17 03:05:24;;;;;;;4.50;3.73;;;2.80;99.90;1.80;100612;;;;567350;249;24096;-80
2023/10/17 03:07:52;;;;;;;6.97;3.10;;;2.70;99.90;1.80;100623;;;;567416;247;24134;-79
2023/10/17 03:10:42;;;;;;;4.73;3.20;;;2.70;99.90;1.70;100621;;;;566142;249;24109;-78
2023/10/17 03:13:23;;;;;;;6.93;3.37;;;2.70;99.90;1.70;100621;;;;571341;249;24129;-80
2023/10/17 03:15:46;;;;;;;12.20;3.37;;;2.70;99.90;1.70;100622;;;;564568;247;24169;-79
2023/10/17 03:18:15;;;;;;;8.57;3.30;;;2.70;99.90;1.70;100620;;;;566991;248;24105;-80
2023/10/17 03:20:44;;;;;;;6.37;2.87;;;2.60;99.90;1.70;100612;;;;566357;248;24137;-80
2023/10/17 03:23:10;;;;;;;5.00;2.80;;;2.70;99.90;1.70;100623;;;;567685;248;24146;-80
2023/10/17 03:25:37;;;;;;;2.80;2.53;;;2.70;99.90;1.70;100619;;;;567993;247;24072;-80
2023/10/17 03:28:09;;;;;;;4.40;2.70;;;2.70;99.90;1.70;100622;;;;566694;249;24093;-80
2023/10/17 03:30:37;;;;;;;6.90;2.90;;;2.60;99.90;1.70;100617;;;;564489;247;24083;-80
2023/10/17 03:33:14;;;;;;;6.87;3.10;;;2.70;99.90;1.70;100610;;;;565301;249;24114;-79
2023/10/17 03:35:49;;;;;;;5.15;3.45;;;2.70;99.90;1.80;100620;;;;560990;249;35332;-80
2023/10/17 03:38:09;;;;;;;3.40;3.10;;;2.70;99.90;1.80;100616;;;;575861;244;24088;-80
2023/10/17 03:40:41;;;;;;;4.40;3.37;;;2.70;99.90;1.80;100618;;;;565934;249;24099;-79
2023/10/17 03:43:12;;;;;;;6.20;3.23;;;2.80;99.90;1.80;100623;;;;566006;249;24174;-79
2023/10/17 03:45:56;;;;;;;4.40;3.37;;;2.80;99.90;1.80;100624;;;;566348;249;25147;-79
2023/10/17 03:48:21;;;;;;;4.07;3.03;;;2.80;99.90;1.90;100617;;;;567559;249;24111;-80
2023/10/17 03:50:57;;;;;;;4.10;3.20;;;2.80;99.90;1.90;100618;;;;566007;249;24099;-80
2023/10/17 03:53:29;;;;;;;6.00;3.30;;;2.80;99.90;1.90;100631;;;;565335;249;24105;-78
2023/10/17 03:56:00;;;;;;;3.90;3.47;;;2.80;99.90;1.90;100630;;;;565901;249;24124;-79
2023/10/17 04:00:53;;;;;;;4.77;3.83;;;2.80;99.90;1.90;100634;;;;565629;249;24140;-79
2023/10/17 04:03:30;;;;;;;8.60;4.23;;;2.80;99.90;1.90;100624;;;;565964;249;24110;-78
2023/10/17 04:09:00;;;;;;;7.50;4.87;;;2.80;99.90;1.80;100627;;;;570824;249;24152;-80
2023/10/17 04:13:48;;;;;;;7.10;5.13;;;2.80;99.90;1.80;100628;;;;565925;249;24070;-79
2023/10/17 04:16:21;;;;;;;5.70;4.70;;;2.80;99.90;1.80;100628;;;;577005;245;24112;-80
2023/10/17 04:18:52;;;;;;;6.63;5.27;;;2.80;99.90;1.80;100625;;;;566098;249;24123;-79
2023/10/17 04:24:04;;;;;;;5.70;4.10;;;2.80;99.90;1.80;100628;;;;576188;248;24103;-79
2023/10/17 04:26:28;;;;;;;7.93;3.93;;;2.80;99.90;1.80;100633;;;;571004;249;24092;-79
2023/10/17 04:28:59;;;;;;;5.57;3.57;;;2.70;99.90;1.70;100634;;;;577061;248;24091;-79
2023/10/17 04:31:31;;;;;;;6.10;4.37;;;2.70;99.90;1.80;100633;;;;568126;248;24110;-78
2023/10/17 04:34:09;;;;;;;7.20;4.63;;;2.70;99.90;1.80;100637;;;;566934;248;24095;-79
2023/10/17 04:36:38;;;;;;;6.77;4.50;;;2.80;99.90;1.80;100635;;;;566826;248;24165;-79
2023/10/17 04:39:18;;;;;;;5.00;3.67;;;2.80;99.90;1.80;100635;;;;568137;248;24085;-80
2023/10/17 04:45:13;;;;;;;5.37;3.67;;;2.80;99.90;1.80;100630;;;;566882;248;24095;-79
2023/10/17 04:47:39;;;;;;;5.30;3.33;;;2.80;99.90;1.80;100630;;;;558804;249;24127;-79
2023/10/17 04:49:21;;;;;;;8.10;4.50;;;2.80;99.90;1.80;100637;;;;558930;249;24099;-78
2023/10/17 04:52:23;;;;;;;9.88;6.45;;;2.80;99.90;1.80;100635;;;;561376;249;35334;-80
2023/10/17 04:57:05;;;;;;;6.47;5.07;;;2.80;99.90;1.80;100648;;;;566757;249;24106;-79
2023/10/17 04:59:51;;;;;;;5.43;4.87;;;2.80;99.90;1.80;100643;;;;566568;249;24112;-77
2023/10/17 06:19:18;;;;;;;3.90;3.60;;;4.30;99.90;3.50;100709;;;;575834;247;24104;-79
2023/10/17 06:27:11;;;;;;;8.60;3.83;;;4.60;99.90;3.90;100714;;;;565747;249;24097;-78
2023/10/17 06:34:48;;;;;;;4.13;2.90;;;5.40;99.90;5.10;100724;;;;545461;254;24369;-78
2023/10/17 06:37:28;;;;;;;4.87;3.17;;;5.80;99.90;5.20;100714;;;;564137;251;24073;-78
2023/10/17 06:39:50;;;;;;;5.87;3.17;;;5.90;99.90;5.10;100704;;;;565109;249;24097;-79
2023/10/17 06:42:38;;;;;;;5.50;2.90;;;5.90;99.90;5.10;100716;;;;561720;249;24098;-79
2023/10/17 06:45:11;;;;;;;3.47;2.23;;;6.00;99.90;5.40;100710;;;;565100;249;24096;-79
2023/10/17 06:47:47;;;;;;;3.93;2.50;;;6.20;99.90;6.70;100726;;;;565741;249;24095;-79
2023/10/17 06:55:28;;;;;;;3.80;2.20;;;10.10;99.90;9.20;100742;;;;572477;248;24080;-79
2023/10/17 06:57:51;;;;;;;3.10;2.30;;;10.00;99.90;8.70;100748;;;;567242;248;24117;-79
2023/10/17 07:00:24;;;;;;;6.83;1.93;;;9.60;99.90;8.30;100743;;;;568176;248;24093;-79
2023/10/17 07:02:49;;;;;;;4.93;1.60;;;9.30;99.90;8.00;100749;;;;568363;248;24088;-79
2023/10/17 07:05:24;;;;;;;5.10;1.70;;;8.90;99.90;7.80;100744;;;;564082;248;24112;-79
2023/10/17 07:07:52;;;;;;;2.83;2.13;;;8.70;99.90;7.70;100746;;;;567797;248;24110;-79
2023/10/17 07:10:37;;;;;;;3.17;1.53;;;8.60;99.90;7.80;100741;;;;565793;249;24136;-78
2023/10/17 07:13:31;;;;;;;2.47;2.03;;;8.50;99.90;7.80;100743;;;;565748;249;24103;-78
2023/10/17 07:16:04;;;;;;;4.00;2.10;;;8.50;99.90;8.40;100745;;;;563075;246;35216;-79
2023/10/17 07:18:44;;;;;;;2.83;2.33;;;8.80;99.90;11.20;100759;;;;575690;249;24104;-79
2023/10/17 07:21:17;;;;;;;4.83;1.67;;;11.30;99.90;12.40;100758;;;;566456;249;24134;-79
2023/10/17 07:23:44;;;;;;;2.77;2.07;;;14.90;99.90;14.50;100765;;;;568126;242;24181;-79
2023/10/17 07:26:58;;;;;;;3.00;2.10;;;16.70;99.90;16.20;100775;;;;571503;243;35234;-79
2023/10/17 07:28:44;;;;;;;2.30;1.63;;;16.70;99.90;17.60;100783;;;;564877;249;23103;-78
2023/10/17 07:31:11;;;;;;;2.60;1.50;;;18.20;99.90;18.70;100782;;;;567185;249;24156;-79
2023/10/17 07:33:36;;;;;;;1.43;1.20;;;19.30;99.90;19.40;100790;;;;567397;249;23127;-79
2023/10/17 07:36:05;;;;;;;2.40;1.90;;;19.80;99.90;19.60;100792;;;;562744;249;35210;-79
2023/10/17 07:38:32;;;;;;;5.73;1.60;;;20.00;99.90;20.60;100785;;;;565616;249;24082;-79
2023/10/17 07:41:09;;;;;;;3.90;1.87;;;21.10;99.90;22.00;100783;;;;567635;249;24116;-79
2023/10/17 07:43:32;;;;;;;1.97;1.50;;;22.50;99.90;23.20;100763;;;;563056;249;24132;-79
2023/10/17 07:46:00;;;;;;;5.60;2.17;;;24.80;99.90;24.20;100762;;;;575804;249;24127;-79
2023/10/17 07:48:28;;;;;;;7.33;2.07;;;25.60;91.30;25.00;100766;;;;567895;246;25141;-80
2023/10/17 07:50:59;;;;;;;4.93;2.07;;;25.50;91.20;25.10;100766;;;;567609;249;24150;-79
2023/10/17 07:53:26;;;;;;;4.53;2.00;;;26.00;81.90;25.20;100763;;;;575860;249;24097;-79
2023/10/17 07:56:04;;;;;;;3.93;1.73;;;26.10;79.70;25.80;100763;;;;576337;246;23110;-80
2023/10/17 08:01:14;;;;;;;4.70;2.10;;;27.70;67.90;26.90;100764;;;;563158;249;23132;-78
2023/10/17 08:03:49;;;;;;;3.73;1.93;;;28.10;65.20;27.30;100771;;;;568174;248;23095;-80
2023/10/17 08:06:07;;;;;;;2.83;1.50;;;28.10;65.20;27.90;100761;;;;568349;248;23174;-80
2023/10/17 08:08:34;;;;;;;3.80;1.70;;;28.70;61.70;28.30;100762;;;;576878;248;24173;-80
2023/10/17 08:11:24;;;;;;;1.70;1.60;;;29.10;61.00;28.70;100765;;;;563662;248;23110;-81
2023/10/17 08:13:35;;;;;;;1.77;1.65;;;29.50;59.10;29.00;100768;;;;567820;248;23162;-80
2023/10/17 08:16:06;;;;;;;2.83;1.83;;;30.00;57.80;29.40;100763;;;;567699;248;23155;-80
2023/10/17 08:18:42;;;;;;;3.85;2.05;;;30.40;56.20;29.50;100768;;;;567703;248;23181;-80
2023/10/17 08:23:57;;;;;;;3.72;1.98;;;30.60;54.70;29.80;100773;;;;576074;247;24149;-80
2023/10/17 08:26:29;;;;;;;2.03;1.83;;;30.90;53.70;29.80;100777;;;;567552;249;23122;-81
2023/10/17 08:28:56;;;;;;;2.17;1.90;;;31.00;53.40;30.10;100777;;;;567578;249;24093;-80
2023/10/17 08:34:12;;;;;;;3.80;1.83;;;31.30;51.60;30.40;100785;;;;576108;245;23176;-80
2023/10/17 08:36:16;;;;;;;2.72;1.80;;;31.60;51.30;30.80;100791;;;;564393;249;23140;-80
2023/10/17 08:38:47;;;;;;;4.37;2.40;;;32.20;50.10;31.00;100796;;;;567754;249;23090;-80
2023/10/17 08:41:15;;;;;;;3.03;2.25;;;32.10;50.00;31.00;100797;;;;567579;249;24186;-80
2023/10/17 08:43:41;;;;;;;2.58;2.17;;;32.30;49.70;31.30;100800;;;;567569;249;24123;-81
2023/10/17 08:46:10;;;;;;;3.28;1.95;;;32.60;50.40;31.80;100807;;;;567796;245;24131;-80
2023/10/17 08:48:37;;;;;;;8.07;2.10;;;32.90;48.50;31.90;100801;;;;567603;249;24158;-81
2023/10/17 08:51:08;;;;;;;1.80;1.70;;;33.40;47.40;32.10;100804;;;;567671;246;24131;-81
2023/10/17 08:53:38;;;;;;;1.85;1.70;;;33.30;47.30;31.70;100799;;;;567717;249;23127;-80
2023/10/17 08:56:07;;;;;;;2.70;2.05;;;33.20;46.90;31.40;100800;;;;575425;244;23093;-80
2023/10/17 08:58:36;;;;;;;2.03;1.70;;;32.90;47.30;31.40;100802;;;;577961;243;24056;-80
2023/10/17 09:01:13;;;;;;;3.22;1.58;;;32.90;47.40;31.10;100803;;;;566552;247;23116;-81
2023/10/17 09:03:40;;;;;;;3.15;2.10;;;32.60;47.40;30.70;100808;;;;574676;245;23070;-81
2023/10/17 09:06:07;;;;;;;3.60;2.08;;;31.80;48.00;30.20;100810;;;;585808;243;23119;-80
2023/10/17 09:08:52;;;;;;;3.72;2.20;;;30.90;48.50;29.10;100806;;;;565613;249;23103;-81
2023/10/17 09:11:25;;;;;;;3.08;2.17;;;30.90;48.50;27.20;100808;;;;567676;249;24106;-81
2023/10/17 09:16:19;;;;;;;5.60;2.33;;;26.50;54.30;24.50;100798;;;;566943;248;23126;-80
2023/10/17 09:18:50;;;;;;;9.03;2.63;;;26.40;54.30;23.70;100789;;;;568389;248;23095;-79
2023/10/17 09:21:21;;;;;;;3.93;2.00;;;25.50;55.90;23.10;100794;;;;564052;248;23102;-79
2023/10/17 09:23:45;;;;;;;4.27;2.00;;;24.70;57.60;22.50;100796;;;;568370;245;23098;-79
2023/10/17 09:26:19;;;;;;;4.77;1.90;;;23.90;58.90;21.90;100789;;;;568194;248;23167;-80
2023/10/17 09:28:42;;;;;;;2.47;1.57;;;22.60;61.40;21.40;100783;;;;563768;248;24074;-81
2023/10/17 09:31:12;;;;;;;2.43;1.60;;;21.90;62.50;20.60;100774;;;;567837;248;23133;-80
2023/10/17 09:33:43;;;;;;;3.70;1.57;;;21.80;62.50;20.10;100792;;;;575890;247;24121;-78
2023/10/17 09:36:12;;;;;;;1.53;1.30;;;21.00;65.50;19.70;100782;;;;576021;246;24097;-80
2023/10/17 09:38:47;;;;;;;4.07;1.30;;;20.70;66.60;19.50;100783;;;;567897;249;24077;-79
2023/10/17 09:41:17;;;;;;;3.70;1.70;;;20.70;66.60;19.60;100780;;;;576505;247;24135;-80
2023/10/17 09:43:49;;;;;;;8.20;1.50;;;20.80;67.00;20.00;100770;;;;566183;249;25130;-80
2023/10/17 09:46:16;;;;;;;4.27;1.37;;;21.10;66.30;20.20;100777;;;;568010;247;24179;-80
2023/10/17 09:48:47;;;;;;;2.53;1.53;;;21.40;65.10;20.20;100775;;;;567767;249;24069;-79
2023/10/17 09:51:12;;;;;;;3.40;1.50;;;21.60;64.70;19.90;100767;;;;567177;249;23112;-79
2023/10/17 09:53:42;;;;;;;1.53;1.20;;;21.60;64.30;19.40;100766;;;;562936;249;24123;-79
2023/10/17 09:56:13;;;;;;;2.20;1.47;;;21.30;64.00;18.90;100769;;;;566944;249;24171;-79
2023/10/17 09:58:41;;;;;;;4.13;1.20;;;20.90;65.00;18.40;100760;;;;563716;247;23180;-78
2023/10/17 10:01:18;;;;;;;2.80;1.50;;;20.50;66.30;17.80;100768;;;;563559;249;24119;-78
2023/10/17 10:03:45;;;;;;;1.63;1.10;;;19.90;67.50;17.40;100764;;;;565719;249;24078;-79
2023/10/17 10:06:36;;;;;;;1.80;1.30;;;19.50;69.00;16.90;100765;;;;562912;249;24104;-79
2023/10/17 10:08:56;;;;;;;2.23;0.90;;;19.00;70.00;16.80;100757;;;;565597;249;24130;-79
2023/10/17 10:11:51;;;;;;;1.30;0.87;;;18.50;71.00;16.50;100755;;;;573220;249;24102;-79
2023/10/17 10:14:33;;;;;;;1.43;0.67;;;18.10;72.00;15.80;100756;;;;569398;248;24127;-81
2023/10/17 10:17:03;;;;;;;4.53;1.00;;;17.30;73.70;15.20;100752;;;;562846;249;24074;-79
2023/10/17 10:19:27;;;;;;;1.87;0.70;;;16.00;78.20;14.60;100746;;;;573073;245;24121;-80
2023/10/17 10:21:59;;;;;;;0.83;0.70;;;15.90;78.10;14.30;100740;;;;569340;249;24174;-80
2023/10/17 10:24:32;;;;;;;2.13;0.97;;;15.40;79.30;13.90;100737;;;;577724;244;24104;-80
2023/10/17 10:29:46;;;;;;;0.87;0.80;;;14.70;82.60;13.40;100729;;;;578853;244;24076;-81
2023/10/17 10:32:26;;;;;;;1.37;0.83;;;14.30;83.40;13.10;100728;;;;565524;249;24081;-81
2023/10/17 10:34:55;;;;;;;1.17;0.90;;;13.70;86.60;12.80;100720;;;;576112;243;24084;-80
2023/10/17 10:37:24;;;;;;;2.67;0.97;;;13.30;87.80;12.50;100718;;;;562112;247;24129;-79
2023/10/17 10:40:32;;;;;;;3.40;0.70;;;13.30;87.80;12.30;100726;;;;567305;249;24200;-80
2023/10/17 10:42:49;;;;;;;1.10;0.40;;;13.10;89.20;12.10;100715;;;;565424;249;24168;-80
2023/10/17 10:45:36;;;;;;;1.13;0.67;;;12.80;90.30;12.00;100721;;;;568284;249;24121;-80
2023/10/17 10:47:59;;;;;;;0.53;0.53;;;12.70;91.10;11.80;100720;;;;568263;249;24192;-80
2023/10/17 10:50:27;;;;;;;4.10;0.70;;;12.50;91.30;11.70;100720;;;;576820;247;24115;-80
2023/10/17 10:52:58;;;;;;;1.27;0.80;;;12.40;91.40;11.60;100721;;;;577376;243;24107;-79
2023/10/17 10:55:26;;;;;;;0.70;0.60;;;12.30;91.50;11.50;100720;;;;566282;249;24107;-80
2023/10/17 10:57:54;;;;;;;0.70;0.70;;;12.20;92.00;11.50;100713;;;;587067;244;24082;-79
2023/10/17 11:00:22;;;;;;;1.13;0.80;;;12.10;92.70;11.40;100710;;;;565460;250;24074;-80
2023/10/17 11:02:50;;;;;;;4.00;0.60;;;12.10;93.40;11.30;100710;;;;577058;245;24088;-81
2023/10/17 11:05:18;;;;;;;1.10;0.63;;;12.00;93.40;11.30;100709;;;;565327;249;24163;-79
2023/10/17 11:07:46;;;;;;;1.10;0.70;;;11.80;94.00;11.10;100697;;;;576355;248;24167;-79
2023/10/17 11:10:17;;;;;;;1.17;0.53;;;11.70;94.90;11.00;100697;;;;566888;249;24120;-79
2023/10/17 11:12:43;;;;;;;0.70;0.50;;;11.70;94.60;10.80;100695;;;;567585;249;24151;-79
2023/10/17 11:15:26;;;;;;;2.83;1.00;;;11.60;95.10;10.70;100694;;;;562752;249;24109;-80
2023/10/17 11:17:51;;;;;;;2.30;0.57;;;11.40;95.80;10.60;100694;;;;567566;249;24116;-80
2023/10/17 11:20:21;;;;;;;3.40;0.57;;;11.30;96.50;10.50;100690;;;;563388;249;24081;-80
2023/10/17 11:22:49;;;;;;;3.00;1.10;;;11.20;97.20;10.40;100697;;;;567394;247;24163;-79
2023/10/17 11:25:31;;;;;;;0.70;0.70;;;11.10;98.00;10.40;100695;;;;567438;249;24149;-78
2023/10/17 11:28:07;;;;;;;3.40;0.90;;;11.00;99.70;10.40;100688;;;;567616;249;24167;-79
2023/10/17 11:30:48;;;;;;;0.70;0.70;;;11.00;99.70;10.50;100681;;;;565442;249;25163;-79
2023/10/17 11:33:00;;;;;;;1.93;0.57;;;11.10;99.90;10.60;100673;;;;568047;248;24082;-79
2023/10/17 11:35:46;;;;;;;1.87;0.67;;;11.20;99.90;10.80;100671;;;;576607;247;24104;-79
2023/10/17 11:37:58;;;;;;;1.33;0.50;;;11.40;99.90;10.80;100677;;;;566749;249;24135;-79
2023/10/17 11:40:54;;;;;;;0.93;0.50;;;11.50;99.90;10.80;100668;;;;577443;246;24101;-79
2023/10/17 11:43:00;;;;;;;2.67;1.23;;;11.50;99.90;10.80;100672;;;;565622;248;24121;-81
2023/10/17 11:45:33;;;;;;;2.40;0.70;;;11.50;99.90;10.80;100678;;;;566900;248;24131;-80
2023/10/17 11:48:14;;;;;;;2.40;0.40;;;11.50;99.90;10.80;100680;;;;567692;248;24155;-79
2023/10/17 11:50:35;;;;;;;1.93;0.60;;;11.40;99.90;10.80;100676;;;;566483;248;25161;-79
2023/10/17 11:53:20;;;;;;;;;;;;;;;;;;;;;
2023/10/17 11:55:41;;;;;;;0.70;0.70;;;11.30;99.90;10.80;100677;;;;573960;249;24105;-78
2023/10/17 11:58:09;;;;;;;1.87;0.90;;;11.50;99.90;10.80;100673;;;;563164;249;24075;-79
2023/10/17 12:00:39;;;;;;;4.33;0.70;;;11.50;99.90;10.90;100666;;;;567271;249;24135;-79
2023/10/17 12:03:11;;;;;;;1.73;0.70;;;11.50;99.90;10.90;100670;;;;567452;249;24099;-78
2023/10/17 12:05:42;;;;;;;1.70;0.60;;;11.50;99.90;10.90;100667;;;;567545;249;25208;-78
2023/10/17 12:08:07;;;;;;;0.77;0.47;;;11.50;99.90;10.90;100672;;;;567526;249;24139;-80
2023/10/17 12:10:42;;;;;;;0.83;0.57;;;11.50;99.90;10.90;100670;;;;575750;248;24226;-79
2023/10/17 12:13:07;;;;;;;0.67;0.57;;;11.50;99.90;10.90;100662;;;;567642;249;24104;-79
2023/10/17 12:15:35;;;;;;;0.80;0.80;;;11.50;99.90;10.90;100660;;;;567347;249;24135;-78
2023/10/17 12:18:03;;;;;;;8.20;4.50;;;11.50;99.90;10.90;100659;;;;567300;249;24132;-80
2023/10/17 12:20:32;;;;;;;0.87;0.70;;;11.60;99.90;11.00;100662;;;;567338;249;24095;-79
2023/10/17 12:23:02;;;;;;;0.43;0.40;;;11.60;99.90;11.00;100659;;;;567448;249;24171;-80
2023/10/17 12:25:34;;;;;;;0.40;0.40;;;11.60;99.90;11.20;100659;;;;567381;249;24072;-80
2023/10/17 12:28:02;;;;;;;1.53;0.60;;;11.90;99.90;11.30;100661;;;;567389;249;24116;-80
2023/10/17 12:30:35;;;;;;;1.00;0.97;;;11.90;99.90;11.30;100657;;;;567586;245;24150;-79
2023/10/17 12:32:59;;;;;;;0.90;0.63;;;12.00;99.90;11.30;100658;;;;567401;247;24127;-78
2023/10/17 12:35:27;;;;;;;0.47;0.47;;;11.90;99.90;11.30;100656;;;;567495;249;24096;-80
2023/10/17 12:37:59;;;;;;;1.20;0.73;;;11.90;99.80;11.30;100648;;;;567619;249;24074;-79
2023/10/17 12:40:23;;;;;;;2.30;0.50;;;12.00;99.90;11.20;100661;;;;567353;249;24126;-80
2023/10/17 12:42:54;;;;;;;2.40;0.60;;;11.90;99.70;11.20;100654;;;;575691;248;24097;-79
2023/10/17 12:45:19;;;;;;;3.97;0.70;;;11.80;99.50;11.10;100647;;;;566137;249;24126;-79
2023/10/17 12:47:50;;;;;;;0.73;0.53;;;11.80;99.70;11.10;100645;;;;567617;245;24096;-79
2023/10/17 12:50:24;;;;;;;1.97;1.03;;;11.80;99.90;11.10;100649;;;;568644;248;24140;-80
2023/10/17 12:52:50;;;;;;;0.57;0.43;;;11.80;99.90;11.10;100652;;;;568117;248;24111;-79
2023/10/17 12:55:22;;;;;;;0.90;0.60;;;11.70;99.90;11.00;100638;;;;567914;248;24099;-80
2023/10/17 12:57:46;;;;;;;0.47;0.47;;;11.70;99.90;11.00;100637;;;;567611;248;24090;-79
2023/10/17 13:00:15;;;;;;;0.50;0.50;;;11.70;99.80;11.00;100643;;;;567626;248;24198;-79
2023/10/17 13:02:47;;;;;;;1.43;0.50;;;11.60;99.70;10.90;100640;;;;567352;245;24141;-78
2023/10/17 13:05:14;;;;;;;0.60;0.60;;;11.60;99.60;10.80;100637;;;;567622;248;24131;-81
2023/10/17 13:07:41;;;;;;;0.40;0.40;;;11.50;99.20;10.80;100642;;;;567379;249;24093;-81
2023/10/17 13:10:12;;;;;;;0.50;0.50;;;11.40;99.00;10.70;100635;;;;567063;249;24086;-80
2023/10/17 13:12:39;;;;;;;1.17;0.57;;;11.40;98.80;10.70;100629;;;;576137;246;24096;-79
2023/10/17 13:15:08;;;;;;;1.33;0.73;;;11.30;98.80;10.70;100623;;;;567181;249;24097;-79
2023/10/17 13:17:39;;;;;;;0.73;0.73;;;11.30;98.70;10.70;100623;;;;567309;248;24108;-80
2023/10/17 13:20:11;;;;;;;0.93;0.47;;;11.30;98.70;10.70;100625;;;;567640;249;24114;-79
2023/10/17 13:23:18;;;;;;;1.83;0.60;;;11.30;98.60;10.60;100618;;;;577025;249;24084;-80
2023/10/17 13:25:09;;;;;;;1.00;0.60;;;11.40;98.60;10.60;100622;;;;568715;247;24111;-80
2023/10/17 13:27:34;;;;;;;0.40;0.40;;;11.20;98.60;10.60;100624;;;;562704;249;24148;-80
2023/10/17 13:30:03;;;;;;;0.50;0.50;;;11.20;98.80;10.50;100617;;;;567086;249;24121;-79
2023/10/17 13:32:32;;;;;;;1.23;0.40;;;11.20;99.10;10.50;100622;;;;562875;249;24124;-78
2023/10/17 13:34:59;;;;;;;1.00;0.80;;;11.20;99.10;10.50;100623;;;;567230;247;27346;-79